sensor_id;sensor_type;location;lat;lon;timestamp;P1;durP1;ratioP1;P2;durP2;ratioP2
35675;SDS011;21790;42.668;23.298;2024-02-26T00:00:29;28.02;;;15.75;;
35675;SDS011;21790;42.668;23.298;2024-02-26T00:02:55;31.90;;;15.13;;
35675;SDS011;21790;42.668;23.298;2024-02-26T00:05:21;27.00;;;15.35;;
35675;SDS011;21790;42.668;23.298;2024-02-26T00:07:47;30.58;;;14.65;;
35675;SDS011;21790;42.668;23.298;2024-02-26T00:10:13;28.00;;;15.50;;
35675;SDS011;21790;42.668;23.298;2024-02-26T00:12:39;29.60;;;15.02;;
35675;SDS011;21790;42.668;23.298;2024-02-26T00:15:08;27.80;;;15.07;;
35675;SDS011;21790;42.668;23.298;2024-02-26T00:17:34;26.17;;;15.02;;
35675;SDS011;21790;42.668;23.298;2024-02-26T00:19:59;30.88;;;14.85;;
35675;SDS011;21790;42.668;23.298;2024-02-26T00:22:26;45.67;;;24.05;;
35675;SDS011;21790;42.668;23.298;2024-02-26T00:24:51;51.22;;;27.70;;
35675;SDS011;21790;42.668;23.298;2024-02-26T00:27:17;56.85;;;31.95;;
35675;SDS011;21790;42.668;23.298;2024-02-26T00:29:42;58.97;;;35.35;;
35675;SDS011;21790;42.668;23.298;2024-02-26T00:32:08;49.55;;;30.42;;
35675;SDS011;21790;42.668;23.298;2024-02-26T00:34:33;41.78;;;23.02;;
35675;SDS011;21790;42.668;23.298;2024-02-26T00:36:59;36.08;;;22.98;;
35675;SDS011;21790;42.668;23.298;2024-02-26T00:39:24;39.85;;;21.08;;
35675;SDS011;21790;42.668;23.298;2024-02-26T00:41:50;38.85;;;21.20;;
35675;SDS011;21790;42.668;23.298;2024-02-26T00:44:16;39.13;;;21.67;;
35675;SDS011;21790;42.668;23.298;2024-02-26T00:46:42;30.13;;;18.55;;
35675;SDS011;21790;42.668;23.298;2024-02-26T00:49:07;37.28;;;17.55;;
35675;SDS011;21790;42.668;23.298;2024-02-26T00:51:33;32.22;;;18.05;;
35675;SDS011;21790;42.668;23.298;2024-02-26T00:53:58;24.73;;;15.30;;
35675;SDS011;21790;42.668;23.298;2024-02-26T00:56:24;28.67;;;15.13;;
35675;SDS011;21790;42.668;23.298;2024-02-26T00:58:50;25.45;;;14.77;;
35675;SDS011;21790;42.668;23.298;2024-02-26T01:01:16;26.70;;;15.10;;
35675;SDS011;21790;42.668;23.298;2024-02-26T01:03:41;27.35;;;13.60;;
35675;SDS011;21790;42.668;23.298;2024-02-26T01:06:07;31.50;;;14.82;;
35675;SDS011;21790;42.668;23.298;2024-02-26T01:08:33;27.17;;;13.65;;
35675;SDS011;21790;42.668;23.298;2024-02-26T01:11:00;23.42;;;13.75;;
35675;SDS011;21790;42.668;23.298;2024-02-26T01:13:26;29.13;;;15.02;;
35675;SDS011;21790;42.668;23.298;2024-02-26T01:15:52;28.83;;;14.90;;
35675;SDS011;21790;42.668;23.298;2024-02-26T01:18:17;26.13;;;14.23;;
35675;SDS011;21790;42.668;23.298;2024-02-26T01:20:43;29.30;;;13.90;;
35675;SDS011;21790;42.668;23.298;2024-02-26T01:23:08;25.13;;;15.35;;
35675;SDS011;21790;42.668;23.298;2024-02-26T01:25:34;30.05;;;15.27;;
35675;SDS011;21790;42.668;23.298;2024-02-26T01:27:59;25.67;;;15.57;;
35675;SDS011;21790;42.668;23.298;2024-02-26T01:30:25;30.67;;;16.05;;
35675;SDS011;21790;42.668;23.298;2024-02-26T01:32:50;26.50;;;16.35;;
35675;SDS011;21790;42.668;23.298;2024-02-26T01:35:16;25.10;;;15.52;;
35675;SDS011;21790;42.668;23.298;2024-02-26T01:37:41;25.17;;;14.57;;
35675;SDS011;21790;42.668;23.298;2024-02-26T01:40:07;24.52;;;13.48;;
35675;SDS011;21790;42.668;23.298;2024-02-26T01:42:34;25.27;;;15.52;;
35675;SDS011;21790;42.668;23.298;2024-02-26T01:45:00;22.50;;;14.75;;
35675;SDS011;21790;42.668;23.298;2024-02-26T01:47:26;23.17;;;14.60;;
35675;SDS011;21790;42.668;23.298;2024-02-26T01:49:52;28.42;;;15.73;;
35675;SDS011;21790;42.668;23.298;2024-02-26T01:52:18;24.00;;;14.50;;
35675;SDS011;21790;42.668;23.298;2024-02-26T01:54:45;23.92;;;12.77;;
35675;SDS011;21790;42.668;23.298;2024-02-26T01:57:11;20.17;;;12.55;;
35675;SDS011;21790;42.668;23.298;2024-02-26T01:59:39;27.13;;;13.57;;
35675;SDS011;21790;42.668;23.298;2024-02-26T02:02:05;26.27;;;14.40;;
35675;SDS011;21790;42.668;23.298;2024-02-26T02:04:34;21.10;;;13.43;;
35675;SDS011;21790;42.668;23.298;2024-02-26T02:07:00;24.40;;;13.38;;
35675;SDS011;21790;42.668;23.298;2024-02-26T02:09:29;22.90;;;13.82;;
35675;SDS011;21790;42.668;23.298;2024-02-26T02:11:55;32.33;;;13.77;;
35675;SDS011;21790;42.668;23.298;2024-02-26T02:14:21;27.67;;;14.10;;
35675;SDS011;21790;42.668;23.298;2024-02-26T02:16:47;24.92;;;14.25;;
35675;SDS011;21790;42.668;23.298;2024-02-26T02:19:13;25.98;;;13.93;;
35675;SDS011;21790;42.668;23.298;2024-02-26T02:21:39;27.83;;;14.00;;
35675;SDS011;21790;42.668;23.298;2024-02-26T02:24:04;24.25;;;13.98;;
35675;SDS011;21790;42.668;23.298;2024-02-26T02:26:30;22.77;;;14.15;;
35675;SDS011;21790;42.668;23.298;2024-02-26T02:28:56;25.95;;;14.60;;
35675;SDS011;21790;42.668;23.298;2024-02-26T02:31:22;26.65;;;14.68;;
35675;SDS011;21790;42.668;23.298;2024-02-26T02:33:48;27.98;;;14.85;;
35675;SDS011;21790;42.668;23.298;2024-02-26T02:36:13;24.80;;;14.00;;
35675;SDS011;21790;42.668;23.298;2024-02-26T02:38:48;25.65;;;12.40;;
35675;SDS011;21790;42.668;23.298;2024-02-26T02:41:17;25.50;;;13.43;;
35675;SDS011;21790;42.668;23.298;2024-02-26T02:43:43;25.63;;;14.88;;
35675;SDS011;21790;42.668;23.298;2024-02-26T02:46:09;24.30;;;13.60;;
35675;SDS011;21790;42.668;23.298;2024-02-26T02:48:36;28.00;;;13.95;;
35675;SDS011;21790;42.668;23.298;2024-02-26T02:51:02;22.67;;;12.40;;
35675;SDS011;21790;42.668;23.298;2024-02-26T02:53:28;25.27;;;13.15;;
35675;SDS011;21790;42.668;23.298;2024-02-26T02:55:53;26.30;;;13.35;;
35675;SDS011;21790;42.668;23.298;2024-02-26T02:58:19;29.15;;;14.75;;
35675;SDS011;21790;42.668;23.298;2024-02-26T03:00:44;24.90;;;14.23;;
35675;SDS011;21790;42.668;23.298;2024-02-26T03:03:10;21.38;;;13.50;;
35675;SDS011;21790;42.668;23.298;2024-02-26T03:05:36;23.60;;;14.48;;
35675;SDS011;21790;42.668;23.298;2024-02-26T03:08:01;24.95;;;13.88;;
35675;SDS011;21790;42.668;23.298;2024-02-26T03:10:27;25.85;;;13.80;;
35675;SDS011;21790;42.668;23.298;2024-02-26T03:12:53;22.50;;;13.55;;
35675;SDS011;21790;42.668;23.298;2024-02-26T03:15:19;25.58;;;13.85;;
35675;SDS011;21790;42.668;23.298;2024-02-26T03:17:44;27.15;;;14.55;;
35675;SDS011;21790;42.668;23.298;2024-02-26T03:20:10;25.35;;;13.38;;
35675;SDS011;21790;42.668;23.298;2024-02-26T03:22:38;27.02;;;14.23;;
35675;SDS011;21790;42.668;23.298;2024-02-26T03:25:04;22.58;;;14.27;;
35675;SDS011;21790;42.668;23.298;2024-02-26T03:27:30;25.90;;;13.63;;
35675;SDS011;21790;42.668;23.298;2024-02-26T03:29:55;28.50;;;14.90;;
35675;SDS011;21790;42.668;23.298;2024-02-26T03:32:21;25.42;;;15.00;;
35675;SDS011;21790;42.668;23.298;2024-02-26T03:34:46;24.33;;;13.68;;
35675;SDS011;21790;42.668;23.298;2024-02-26T03:37:12;28.10;;;14.68;;
35675;SDS011;21790;42.668;23.298;2024-02-26T03:39:37;25.63;;;14.05;;
35675;SDS011;21790;42.668;23.298;2024-02-26T03:42:03;28.70;;;14.25;;
35675;SDS011;21790;42.668;23.298;2024-02-26T03:44:29;26.70;;;14.98;;
35675;SDS011;21790;42.668;23.298;2024-02-26T03:46:54;28.80;;;14.93;;
35675;SDS011;21790;42.668;23.298;2024-02-26T03:49:20;29.35;;;15.30;;
35675;SDS011;21790;42.668;23.298;2024-02-26T03:51:46;27.52;;;14.40;;
35675;SDS011;21790;42.668;23.298;2024-02-26T03:54:12;23.67;;;13.95;;
35675;SDS011;21790;42.668;23.298;2024-02-26T03:56:37;31.83;;;14.68;;
35675;SDS011;21790;42.668;23.298;2024-02-26T03:59:03;28.23;;;14.27;;
35675;SDS011;21790;42.668;23.298;2024-02-26T04:01:28;28.00;;;14.90;;
35675;SDS011;21790;42.668;23.298;2024-02-26T04:03:54;27.48;;;15.50;;
35675;SDS011;21790;42.668;23.298;2024-02-26T04:06:19;32.75;;;16.65;;
35675;SDS011;21790;42.668;23.298;2024-02-26T04:08:48;26.42;;;15.07;;
35675;SDS011;21790;42.668;23.298;2024-02-26T04:11:14;28.88;;;14.60;;
35675;SDS011;21790;42.668;23.298;2024-02-26T04:13:43;27.25;;;15.43;;
35675;SDS011;21790;42.668;23.298;2024-02-26T04:16:14;28.13;;;16.13;;
35675;SDS011;21790;42.668;23.298;2024-02-26T04:18:41;28.95;;;15.30;;
35675;SDS011;21790;42.668;23.298;2024-02-26T04:21:06;28.45;;;15.40;;
35675;SDS011;21790;42.668;23.298;2024-02-26T04:23:32;29.75;;;15.23;;
35675;SDS011;21790;42.668;23.298;2024-02-26T04:25:58;29.13;;;14.82;;
35675;SDS011;21790;42.668;23.298;2024-02-26T04:28:24;27.33;;;16.85;;
35675;SDS011;21790;42.668;23.298;2024-02-26T04:30:51;23.52;;;15.45;;
35675;SDS011;21790;42.668;23.298;2024-02-26T04:33:17;24.50;;;14.35;;
35675;SDS011;21790;42.668;23.298;2024-02-26T04:35:42;37.28;;;14.73;;
35675;SDS011;21790;42.668;23.298;2024-02-26T04:38:08;28.17;;;14.57;;
35675;SDS011;21790;42.668;23.298;2024-02-26T04:40:33;25.05;;;16.02;;
35675;SDS011;21790;42.668;23.298;2024-02-26T04:42:59;30.35;;;16.13;;
35675;SDS011;21790;42.668;23.298;2024-02-26T04:45:24;26.95;;;15.40;;
35675;SDS011;21790;42.668;23.298;2024-02-26T04:47:50;27.55;;;16.40;;
35675;SDS011;21790;42.668;23.298;2024-02-26T04:50:15;28.10;;;16.90;;
35675;SDS011;21790;42.668;23.298;2024-02-26T04:52:41;26.45;;;16.88;;
35675;SDS011;21790;42.668;23.298;2024-02-26T04:55:07;28.55;;;15.88;;
35675;SDS011;21790;42.668;23.298;2024-02-26T04:57:33;28.52;;;16.45;;
35675;SDS011;21790;42.668;23.298;2024-02-26T04:59:58;27.50;;;17.50;;
35675;SDS011;21790;42.668;23.298;2024-02-26T05:02:24;27.15;;;16.80;;
35675;SDS011;21790;42.668;23.298;2024-02-26T05:04:49;31.65;;;16.90;;
35675;SDS011;21790;42.668;23.298;2024-02-26T05:07:15;30.10;;;16.95;;
35675;SDS011;21790;42.668;23.298;2024-02-26T05:09:42;27.90;;;17.25;;
35675;SDS011;21790;42.668;23.298;2024-02-26T05:12:09;32.33;;;18.15;;
35675;SDS011;21790;42.668;23.298;2024-02-26T05:14:34;39.92;;;20.80;;
35675;SDS011;21790;42.668;23.298;2024-02-26T05:17:00;33.33;;;18.67;;
35675;SDS011;21790;42.668;23.298;2024-02-26T05:19:25;31.95;;;18.50;;
35675;SDS011;21790;42.668;23.298;2024-02-26T05:21:52;33.13;;;19.35;;
35675;SDS011;21790;42.668;23.298;2024-02-26T05:24:17;44.97;;;21.40;;
35675;SDS011;21790;42.668;23.298;2024-02-26T05:26:45;42.22;;;22.70;;
35675;SDS011;21790;42.668;23.298;2024-02-26T05:29:11;41.75;;;22.98;;
35675;SDS011;21790;42.668;23.298;2024-02-26T05:31:36;41.55;;;22.33;;
35675;SDS011;21790;42.668;23.298;2024-02-26T05:34:02;43.25;;;23.23;;
35675;SDS011;21790;42.668;23.298;2024-02-26T05:36:27;42.10;;;21.58;;
35675;SDS011;21790;42.668;23.298;2024-02-26T05:38:59;39.15;;;23.17;;
35675;SDS011;21790;42.668;23.298;2024-02-26T05:41:26;39.72;;;22.67;;
35675;SDS011;21790;42.668;23.298;2024-02-26T05:43:52;40.20;;;23.50;;
35675;SDS011;21790;42.668;23.298;2024-02-26T05:46:18;38.63;;;22.33;;
35675;SDS011;21790;42.668;23.298;2024-02-26T05:48:48;41.53;;;23.83;;
35675;SDS011;21790;42.668;23.298;2024-02-26T05:51:14;47.85;;;24.90;;
35675;SDS011;21790;42.668;23.298;2024-02-26T05:53:43;44.67;;;23.90;;
35675;SDS011;21790;42.668;23.298;2024-02-26T05:56:08;37.95;;;23.65;;
35675;SDS011;21790;42.668;23.298;2024-02-26T05:58:34;42.90;;;23.90;;
35675;SDS011;21790;42.668;23.298;2024-02-26T06:00:59;44.40;;;25.15;;
35675;SDS011;21790;42.668;23.298;2024-02-26T06:03:25;50.90;;;27.65;;
35675;SDS011;21790;42.668;23.298;2024-02-26T06:05:51;45.38;;;25.67;;
35675;SDS011;21790;42.668;23.298;2024-02-26T06:08:17;60.08;;;29.10;;
35675;SDS011;21790;42.668;23.298;2024-02-26T06:10:42;49.67;;;28.50;;
35675;SDS011;21790;42.668;23.298;2024-02-26T06:13:08;50.00;;;28.65;;
35675;SDS011;21790;42.668;23.298;2024-02-26T06:15:34;51.22;;;29.98;;
35675;SDS011;21790;42.668;23.298;2024-02-26T06:17:59;58.83;;;29.88;;
35675;SDS011;21790;42.668;23.298;2024-02-26T06:20:25;54.45;;;29.77;;
35675;SDS011;21790;42.668;23.298;2024-02-26T06:22:50;51.00;;;29.17;;
35675;SDS011;21790;42.668;23.298;2024-02-26T06:25:16;50.60;;;29.05;;
35675;SDS011;21790;42.668;23.298;2024-02-26T06:27:41;53.50;;;30.08;;
35675;SDS011;21790;42.668;23.298;2024-02-26T06:30:07;49.97;;;28.65;;
35675;SDS011;21790;42.668;23.298;2024-02-26T06:32:35;50.13;;;28.00;;
35675;SDS011;21790;42.668;23.298;2024-02-26T06:35:01;48.72;;;27.00;;
35675;SDS011;21790;42.668;23.298;2024-02-26T06:37:31;49.10;;;26.50;;
35675;SDS011;21790;42.668;23.298;2024-02-26T06:39:57;45.80;;;27.73;;
35675;SDS011;21790;42.668;23.298;2024-02-26T06:42:23;55.78;;;27.05;;
35675;SDS011;21790;42.668;23.298;2024-02-26T06:44:48;55.50;;;27.83;;
35675;SDS011;21790;42.668;23.298;2024-02-26T06:47:14;46.60;;;27.92;;
35675;SDS011;21790;42.668;23.298;2024-02-26T06:49:39;46.63;;;25.45;;
35675;SDS011;21790;42.668;23.298;2024-02-26T06:52:05;41.92;;;26.10;;
35675;SDS011;21790;42.668;23.298;2024-02-26T06:54:31;46.85;;;25.70;;
35675;SDS011;21790;42.668;23.298;2024-02-26T06:56:57;44.30;;;24.60;;
35675;SDS011;21790;42.668;23.298;2024-02-26T06:59:22;41.15;;;23.98;;
35675;SDS011;21790;42.668;23.298;2024-02-26T07:01:49;31.02;;;20.33;;
35675;SDS011;21790;42.668;23.298;2024-02-26T07:04:14;40.08;;;22.42;;
35675;SDS011;21790;42.668;23.298;2024-02-26T07:06:40;34.33;;;17.38;;
35675;SDS011;21790;42.668;23.298;2024-02-26T07:09:06;30.10;;;15.88;;
35675;SDS011;21790;42.668;23.298;2024-02-26T07:11:32;28.38;;;16.00;;
35675;SDS011;21790;42.668;23.298;2024-02-26T07:13:57;30.23;;;16.25;;
35675;SDS011;21790;42.668;23.298;2024-02-26T07:16:23;29.45;;;16.17;;
35675;SDS011;21790;42.668;23.298;2024-02-26T07:18:48;26.60;;;14.80;;
35675;SDS011;21790;42.668;23.298;2024-02-26T07:21:14;32.78;;;15.65;;
35675;SDS011;21790;42.668;23.298;2024-02-26T07:23:39;33.58;;;16.48;;
35675;SDS011;21790;42.668;23.298;2024-02-26T07:26:05;30.92;;;16.08;;
35675;SDS011;21790;42.668;23.298;2024-02-26T07:28:30;30.65;;;17.55;;
35675;SDS011;21790;42.668;23.298;2024-02-26T07:30:56;27.98;;;16.80;;
35675;SDS011;21790;42.668;23.298;2024-02-26T07:33:21;36.97;;;20.20;;
35675;SDS011;21790;42.668;23.298;2024-02-26T07:35:47;35.15;;;20.17;;
35675;SDS011;21790;42.668;23.298;2024-02-26T07:38:13;42.90;;;18.92;;
35675;SDS011;21790;42.668;23.298;2024-02-26T07:40:39;34.90;;;19.15;;
35675;SDS011;21790;42.668;23.298;2024-02-26T07:43:04;36.15;;;17.98;;
35675;SDS011;21790;42.668;23.298;2024-02-26T07:45:30;33.50;;;17.02;;
35675;SDS011;21790;42.668;23.298;2024-02-26T07:47:55;29.17;;;16.45;;
35675;SDS011;21790;42.668;23.298;2024-02-26T07:50:21;30.98;;;18.98;;
35675;SDS011;21790;42.668;23.298;2024-02-26T07:52:47;28.52;;;18.00;;
35675;SDS011;21790;42.668;23.298;2024-02-26T07:55:12;35.95;;;18.70;;
35675;SDS011;21790;42.668;23.298;2024-02-26T07:57:41;40.45;;;19.33;;
35675;SDS011;21790;42.668;23.298;2024-02-26T08:00:08;50.08;;;21.25;;
35675;SDS011;21790;42.668;23.298;2024-02-26T08:02:35;37.40;;;20.52;;
35675;SDS011;21790;42.668;23.298;2024-02-26T08:05:01;34.67;;;21.15;;
35675;SDS011;21790;42.668;23.298;2024-02-26T08:07:27;45.30;;;26.90;;
35675;SDS011;21790;42.668;23.298;2024-02-26T08:09:53;39.95;;;23.42;;
35675;SDS011;21790;42.668;23.298;2024-02-26T08:12:19;48.83;;;23.05;;
35675;SDS011;21790;42.668;23.298;2024-02-26T08:14:44;48.83;;;23.67;;
35675;SDS011;21790;42.668;23.298;2024-02-26T08:17:10;42.22;;;22.70;;
35675;SDS011;21790;42.668;23.298;2024-02-26T08:19:35;48.13;;;24.30;;
35675;SDS011;21790;42.668;23.298;2024-02-26T08:22:01;49.22;;;26.08;;
35675;SDS011;21790;42.668;23.298;2024-02-26T08:24:27;54.72;;;27.98;;
35675;SDS011;21790;42.668;23.298;2024-02-26T08:26:53;49.10;;;26.45;;
35675;SDS011;21790;42.668;23.298;2024-02-26T08:29:19;60.72;;;28.40;;
35675;SDS011;21790;42.668;23.298;2024-02-26T08:31:44;52.70;;;29.38;;
35675;SDS011;21790;42.668;23.298;2024-02-26T08:34:09;63.85;;;31.85;;
35675;SDS011;21790;42.668;23.298;2024-02-26T08:36:35;57.00;;;32.90;;
35675;SDS011;21790;42.668;23.298;2024-02-26T08:39:01;60.35;;;32.92;;
35675;SDS011;21790;42.668;23.298;2024-02-26T08:41:26;68.07;;;32.63;;
35675;SDS011;21790;42.668;23.298;2024-02-26T08:43:52;64.03;;;33.53;;
35675;SDS011;21790;42.668;23.298;2024-02-26T08:46:17;67.85;;;35.88;;
35675;SDS011;21790;42.668;23.298;2024-02-26T08:48:43;63.90;;;36.20;;
35675;SDS011;21790;42.668;23.298;2024-02-26T08:51:08;74.45;;;35.90;;
35675;SDS011;21790;42.668;23.298;2024-02-26T08:53:35;69.88;;;36.72;;
35675;SDS011;21790;42.668;23.298;2024-02-26T08:56:01;76.80;;;38.42;;
35675;SDS011;21790;42.668;23.298;2024-02-26T08:58:27;73.80;;;39.55;;
35675;SDS011;21790;42.668;23.298;2024-02-26T09:00:53;68.15;;;39.67;;
35675;SDS011;21790;42.668;23.298;2024-02-26T09:03:19;61.17;;;34.72;;
35675;SDS011;21790;42.668;23.298;2024-02-26T09:05:45;65.57;;;33.97;;
35675;SDS011;21790;42.668;23.298;2024-02-26T09:08:10;54.88;;;29.25;;
35675;SDS011;21790;42.668;23.298;2024-02-26T09:10:36;42.33;;;22.30;;
35675;SDS011;21790;42.668;23.298;2024-02-26T09:13:01;25.30;;;16.95;;
35675;SDS011;21790;42.668;23.298;2024-02-26T09:15:27;16.13;;;7.90;;
35675;SDS011;21790;42.668;23.298;2024-02-26T09:17:53;13.68;;;7.07;;
35675;SDS011;21790;42.668;23.298;2024-02-26T09:20:19;13.07;;;7.55;;
35675;SDS011;21790;42.668;23.298;2024-02-26T09:22:48;10.98;;;6.35;;
35675;SDS011;21790;42.668;23.298;2024-02-26T09:25:14;20.67;;;7.50;;
35675;SDS011;21790;42.668;23.298;2024-02-26T09:27:43;14.80;;;8.27;;
35675;SDS011;21790;42.668;23.298;2024-02-26T09:30:09;16.38;;;8.05;;
35675;SDS011;21790;42.668;23.298;2024-02-26T09:32:36;14.45;;;8.38;;
35675;SDS011;21790;42.668;23.298;2024-02-26T09:35:02;17.25;;;8.18;;
35675;SDS011;21790;42.668;23.298;2024-02-26T09:37:28;17.88;;;8.70;;
35675;SDS011;21790;42.668;23.298;2024-02-26T09:39:53;18.20;;;8.90;;
35675;SDS011;21790;42.668;23.298;2024-02-26T09:42:19;18.85;;;8.75;;
35675;SDS011;21790;42.668;23.298;2024-02-26T09:44:45;16.67;;;7.88;;
35675;SDS011;21790;42.668;23.298;2024-02-26T09:47:14;13.27;;;7.07;;
35675;SDS011;21790;42.668;23.298;2024-02-26T09:49:42;14.55;;;6.88;;
35675;SDS011;21790;42.668;23.298;2024-02-26T09:52:08;15.90;;;7.45;;
35675;SDS011;21790;42.668;23.298;2024-02-26T09:54:37;14.88;;;8.95;;
35675;SDS011;21790;42.668;23.298;2024-02-26T09:57:03;15.32;;;7.43;;
35675;SDS011;21790;42.668;23.298;2024-02-26T09:59:36;16.42;;;7.65;;
35675;SDS011;21790;42.668;23.298;2024-02-26T10:02:06;11.52;;;6.55;;
35675;SDS011;21790;42.668;23.298;2024-02-26T10:04:36;10.55;;;7.45;;
35675;SDS011;21790;42.668;23.298;2024-02-26T10:07:03;13.43;;;7.00;;
35675;SDS011;21790;42.668;23.298;2024-02-26T10:09:30;17.10;;;8.02;;
35675;SDS011;21790;42.668;23.298;2024-02-26T10:11:57;15.65;;;7.00;;
35675;SDS011;21790;42.668;23.298;2024-02-26T10:14:22;10.25;;;6.45;;
35675;SDS011;21790;42.668;23.298;2024-02-26T10:16:49;12.20;;;6.05;;
35675;SDS011;21790;42.668;23.298;2024-02-26T10:19:24;13.52;;;7.05;;
35675;SDS011;21790;42.668;23.298;2024-02-26T10:22:00;9.70;;;6.55;;
35675;SDS011;21790;42.668;23.298;2024-02-26T10:24:27;12.05;;;6.38;;
35675;SDS011;21790;42.668;23.298;2024-02-26T10:26:54;9.27;;;5.78;;
35675;SDS011;21790;42.668;23.298;2024-02-26T10:29:20;10.02;;;7.00;;
35675;SDS011;21790;42.668;23.298;2024-02-26T10:31:46;11.82;;;7.28;;
35675;SDS011;21790;42.668;23.298;2024-02-26T10:34:12;12.27;;;6.90;;
35675;SDS011;21790;42.668;23.298;2024-02-26T10:36:39;15.10;;;6.90;;
35675;SDS011;21790;42.668;23.298;2024-02-26T10:39:08;11.15;;;7.15;;
35675;SDS011;21790;42.668;23.298;2024-02-26T10:41:35;20.52;;;9.20;;
35675;SDS011;21790;42.668;23.298;2024-02-26T10:44:01;14.00;;;7.18;;
35675;SDS011;21790;42.668;23.298;2024-02-26T10:46:26;12.13;;;7.10;;
35675;SDS011;21790;42.668;23.298;2024-02-26T10:48:52;10.23;;;6.22;;
35675;SDS011;21790;42.668;23.298;2024-02-26T10:51:20;14.45;;;7.60;;
35675;SDS011;21790;42.668;23.298;2024-02-26T10:56:21;13.18;;;7.88;;
35675;SDS011;21790;42.668;23.298;2024-02-26T10:58:52;9.98;;;5.93;;
35675;SDS011;21790;42.668;23.298;2024-02-26T11:01:18;10.95;;;6.35;;
35675;SDS011;21790;42.668;23.298;2024-02-26T11:03:46;14.55;;;6.63;;
35675;SDS011;21790;42.668;23.298;2024-02-26T11:06:15;13.13;;;6.97;;
35675;SDS011;21790;42.668;23.298;2024-02-26T11:08:41;10.63;;;6.05;;
35675;SDS011;21790;42.668;23.298;2024-02-26T11:11:07;11.73;;;6.65;;
35675;SDS011;21790;42.668;23.298;2024-02-26T11:13:34;13.38;;;6.18;;
35675;SDS011;21790;42.668;23.298;2024-02-26T11:16:04;10.95;;;6.60;;
35675;SDS011;21790;42.668;23.298;2024-02-26T11:18:30;9.40;;;5.75;;
35675;SDS011;21790;42.668;23.298;2024-02-26T11:20:56;14.27;;;6.50;;
35675;SDS011;21790;42.668;23.298;2024-02-26T11:23:23;8.48;;;6.10;;
35675;SDS011;21790;42.668;23.298;2024-02-26T11:25:49;8.88;;;6.13;;
35675;SDS011;21790;42.668;23.298;2024-02-26T11:28:17;13.55;;;6.70;;
35675;SDS011;21790;42.668;23.298;2024-02-26T11:30:46;13.52;;;6.90;;
35675;SDS011;21790;42.668;23.298;2024-02-26T11:33:13;8.73;;;6.30;;
35675;SDS011;21790;42.668;23.298;2024-02-26T11:35:40;13.70;;;5.82;;
35675;SDS011;21790;42.668;23.298;2024-02-26T11:38:06;10.63;;;5.85;;
35675;SDS011;21790;42.668;23.298;2024-02-26T11:40:33;9.50;;;5.93;;
35675;SDS011;21790;42.668;23.298;2024-02-26T11:43:03;11.95;;;7.15;;
35675;SDS011;21790;42.668;23.298;2024-02-26T11:48:04;11.20;;;5.93;;
35675;SDS011;21790;42.668;23.298;2024-02-26T11:50:36;13.05;;;5.93;;
35675;SDS011;21790;42.668;23.298;2024-02-26T11:58:42;8.50;;;5.53;;
35675;SDS011;21790;42.668;23.298;2024-02-26T12:04:13;13.80;;;5.60;;
35675;SDS011;21790;42.668;23.298;2024-02-26T12:06:42;14.88;;;5.75;;
35675;SDS011;21790;42.668;23.298;2024-02-26T12:09:10;10.88;;;5.57;;
35675;SDS011;21790;42.668;23.298;2024-02-26T12:11:39;10.80;;;4.82;;
35675;SDS011;21790;42.668;23.298;2024-02-26T12:14:07;9.38;;;5.10;;
35675;SDS011;21790;42.668;23.298;2024-02-26T12:16:34;10.05;;;5.18;;
35675;SDS011;21790;42.668;23.298;2024-02-26T12:19:03;12.45;;;5.47;;
35675;SDS011;21790;42.668;23.298;2024-02-26T12:21:30;12.88;;;4.97;;
35675;SDS011;21790;42.668;23.298;2024-02-26T12:24:06;14.68;;;5.55;;
35675;SDS011;21790;42.668;23.298;2024-02-26T12:26:41;10.43;;;5.22;;
35675;SDS011;21790;42.668;23.298;2024-02-26T12:29:07;11.32;;;5.05;;
35675;SDS011;21790;42.668;23.298;2024-02-26T12:31:33;9.90;;;5.40;;
35675;SDS011;21790;42.668;23.298;2024-02-26T12:33:59;7.97;;;5.20;;
35675;SDS011;21790;42.668;23.298;2024-02-26T12:36:25;9.32;;;4.47;;
35675;SDS011;21790;42.668;23.298;2024-02-26T12:38:51;9.75;;;5.13;;
35675;SDS011;21790;42.668;23.298;2024-02-26T12:41:17;8.75;;;4.30;;
35675;SDS011;21790;42.668;23.298;2024-02-26T12:43:43;11.63;;;4.90;;
35675;SDS011;21790;42.668;23.298;2024-02-26T12:46:08;9.90;;;4.65;;
35675;SDS011;21790;42.668;23.298;2024-02-26T12:48:36;19.85;;;5.40;;
35675;SDS011;21790;42.668;23.298;2024-02-26T12:51:03;13.95;;;5.22;;
35675;SDS011;21790;42.668;23.298;2024-02-26T12:53:28;10.77;;;5.38;;
35675;SDS011;21790;42.668;23.298;2024-02-26T12:55:54;9.25;;;4.60;;
35675;SDS011;21790;42.668;23.298;2024-02-26T12:58:20;11.38;;;5.40;;
35675;SDS011;21790;42.668;23.298;2024-02-26T13:00:51;11.00;;;4.63;;
35675;SDS011;21790;42.668;23.298;2024-02-26T13:03:17;8.32;;;4.40;;
35675;SDS011;21790;42.668;23.298;2024-02-26T13:05:44;8.38;;;4.50;;
35675;SDS011;21790;42.668;23.298;2024-02-26T13:08:17;6.38;;;4.40;;
35675;SDS011;21790;42.668;23.298;2024-02-26T13:10:43;13.98;;;4.63;;
35675;SDS011;21790;42.668;23.298;2024-02-26T13:13:10;7.40;;;4.43;;
35675;SDS011;21790;42.668;23.298;2024-02-26T13:15:35;9.07;;;4.57;;
35675;SDS011;21790;42.668;23.298;2024-02-26T13:18:08;10.60;;;4.57;;
35675;SDS011;21790;42.668;23.298;2024-02-26T13:20:35;10.90;;;4.30;;
35675;SDS011;21790;42.668;23.298;2024-02-26T13:23:04;12.88;;;5.07;;
35675;SDS011;21790;42.668;23.298;2024-02-26T13:25:32;8.45;;;4.50;;
35675;SDS011;21790;42.668;23.298;2024-02-26T13:28:13;10.15;;;4.40;;
35675;SDS011;21790;42.668;23.298;2024-02-26T13:30:52;12.90;;;4.80;;
35675;SDS011;21790;42.668;23.298;2024-02-26T13:33:18;10.70;;;4.80;;
35675;SDS011;21790;42.668;23.298;2024-02-26T13:35:44;11.55;;;4.63;;
35675;SDS011;21790;42.668;23.298;2024-02-26T13:38:10;8.68;;;4.70;;
35675;SDS011;21790;42.668;23.298;2024-02-26T13:40:35;8.55;;;5.35;;
35675;SDS011;21790;42.668;23.298;2024-02-26T13:43:01;11.07;;;4.18;;
35675;SDS011;21790;42.668;23.298;2024-02-26T13:45:28;10.15;;;4.55;;
35675;SDS011;21790;42.668;23.298;2024-02-26T13:47:53;9.43;;;4.07;;
35675;SDS011;21790;42.668;23.298;2024-02-26T13:50:19;10.10;;;5.07;;
35675;SDS011;21790;42.668;23.298;2024-02-26T13:52:49;11.40;;;5.10;;
35675;SDS011;21790;42.668;23.298;2024-02-26T13:55:18;7.05;;;4.05;;
35675;SDS011;21790;42.668;23.298;2024-02-26T13:57:44;11.73;;;4.43;;
35675;SDS011;21790;42.668;23.298;2024-02-26T14:00:10;9.35;;;4.18;;
35675;SDS011;21790;42.668;23.298;2024-02-26T14:02:36;13.13;;;4.75;;
35675;SDS011;21790;42.668;23.298;2024-02-26T14:05:01;7.85;;;4.13;;
35675;SDS011;21790;42.668;23.298;2024-02-26T14:07:30;9.80;;;4.38;;
35675;SDS011;21790;42.668;23.298;2024-02-26T14:09:59;9.18;;;4.43;;
35675;SDS011;21790;42.668;23.298;2024-02-26T14:12:24;11.70;;;4.90;;
35675;SDS011;21790;42.668;23.298;2024-02-26T14:14:50;7.90;;;4.20;;
35675;SDS011;21790;42.668;23.298;2024-02-26T14:17:18;7.55;;;4.32;;
35675;SDS011;21790;42.668;23.298;2024-02-26T14:19:43;9.88;;;4.32;;
35675;SDS011;21790;42.668;23.298;2024-02-26T14:22:13;13.18;;;4.88;;